createdAt,value
2018-03-28T00:01:45.942Z,9.80
2018-03-28T00:04:14.126Z,9.70
2018-03-28T00:06:43.009Z,9.60
2018-03-28T00:09:11.758Z,9.50
2018-03-28T00:11:39.977Z,9.50
2018-03-28T00:14:08.142Z,9.40
2018-03-28T00:16:36.861Z,9.40
2018-03-28T00:19:05.115Z,9.30
2018-03-28T00:21:34.108Z,9.10
2018-03-28T00:24:02.380Z,9.10
2018-03-28T00:26:30.656Z,9.00
2018-03-28T00:28:58.932Z,9.00
2018-03-28T00:31:27.099Z,8.90
2018-03-28T00:33:55.382Z,8.80
2018-03-28T00:36:23.657Z,8.70
2018-03-28T00:38:51.933Z,8.70
2018-03-28T00:41:20.209Z,8.60
2018-03-28T00:43:48.476Z,8.50
2018-03-28T00:46:17.671Z,8.40
2018-03-28T00:48:45.848Z,8.40
2018-03-28T00:51:26.820Z,8.30
2018-03-28T00:53:54.996Z,8.20
2018-03-28T00:56:23.280Z,8.20
2018-03-28T00:58:51.555Z,8.10
2018-03-28T01:01:20.445Z,8.00
2018-03-28T01:03:48.824Z,8.00
2018-03-28T01:06:23.506Z,8.00
2018-03-28T01:08:51.516Z,7.90
2018-03-28T01:11:19.585Z,7.90
2018-03-28T01:13:47.550Z,7.90
2018-03-28T01:16:15.515Z,7.90
2018-03-28T01:18:43.702Z,7.80
2018-03-28T01:21:11.659Z,7.80
2018-03-28T01:23:39.627Z,7.70
2018-03-28T01:26:07.711Z,7.70
2018-03-28T01:28:35.678Z,7.70
2018-03-28T01:31:03.854Z,7.60
2018-03-28T01:33:31.816Z,7.60
2018-03-28T01:35:59.986Z,7.50
2018-03-28T01:38:28.987Z,7.40
2018-03-28T01:40:57.154Z,7.40
2018-03-28T01:43:25.327Z,7.40
2018-03-28T01:45:53.290Z,7.40
2018-03-28T01:48:21.466Z,7.30
2018-03-28T01:50:50.567Z,7.30
2018-03-28T01:53:18.732Z,7.20
2018-03-28T01:55:47.020Z,7.20
2018-03-28T01:58:15.188Z,7.10
2018-03-28T02:00:43.356Z,7.10
2018-03-28T02:03:12.463Z,7.10
2018-03-28T02:05:40.625Z,7.10
2018-03-28T02:08:08.900Z,7.00
2018-03-28T02:10:37.074Z,7.10
2018-03-28T02:13:05.363Z,7.00
2018-03-28T02:15:33.638Z,7.00
2018-03-28T02:18:02.630Z,7.00
2018-03-28T02:20:30.799Z,7.00
2018-03-28T02:22:58.949Z,6.90
2018-03-28T02:25:27.867Z,7.00
2018-03-28T02:27:56.029Z,6.90
2018-03-28T02:30:24.205Z,6.90
2018-03-28T02:32:52.377Z,6.90
2018-03-28T02:35:20.555Z,6.90
2018-03-28T02:37:48.729Z,6.80
2018-03-28T02:40:16.795Z,6.70
2018-03-28T02:42:45.187Z,6.70
2018-03-28T02:45:14.281Z,6.70
2018-03-28T02:47:42.444Z,6.70
2018-03-28T02:50:10.497Z,6.70
2018-03-28T02:52:38.802Z,6.60
2018-03-28T02:55:06.970Z,6.60
2018-03-28T02:57:35.141Z,6.60
2018-03-28T03:00:03.425Z,6.60
2018-03-28T03:02:32.200Z,6.60
2018-03-28T03:05:00.376Z,6.60
2018-03-28T03:07:28.547Z,6.50
2018-03-28T03:09:56.835Z,6.50
2018-03-28T03:12:25.728Z,6.50
2018-03-28T03:14:54.398Z,6.50
2018-03-28T03:17:23.390Z,6.50
2018-03-28T03:19:51.462Z,6.50
2018-03-28T03:22:19.638Z,6.50
2018-03-28T03:24:47.923Z,6.50
2018-03-28T03:27:16.093Z,6.60
2018-03-28T03:29:44.264Z,6.60
2018-03-28T03:32:12.432Z,6.60
2018-03-28T03:34:40.606Z,6.60
2018-03-28T03:37:10.329Z,6.50
2018-03-28T03:39:38.493Z,6.50
2018-03-28T03:42:06.662Z,6.50
2018-03-28T03:44:35.552Z,6.40
2018-03-28T03:47:03.733Z,6.40
2018-03-28T03:49:33.540Z,6.20
2018-03-28T03:52:01.712Z,6.20
2018-03-28T03:54:30.884Z,6.20
2018-03-28T03:56:59.081Z,6.20
2018-03-28T03:59:27.260Z,6.20
2018-03-28T04:01:55.434Z,6.20
2018-03-28T04:04:23.717Z,6.20
2018-03-28T04:06:51.885Z,6.10
2018-03-28T04:09:20.052Z,6.10
2018-03-28T04:11:48.228Z,6.10
2018-03-28T04:14:16.402Z,6.10
2018-03-28T04:16:44.470Z,6.10
2018-03-28T04:19:12.643Z,6.10
2018-03-28T04:21:43.492Z,6.10
2018-03-28T04:24:12.165Z,6.10
2018-03-28T04:26:41.776Z,6.10
2018-03-28T04:29:10.064Z,6.10
2018-03-28T04:31:38.336Z,6.20
2018-03-28T04:34:06.497Z,6.20
2018-03-28T04:36:34.707Z,6.10
2018-03-28T04:39:03.667Z,6.10
2018-03-28T04:41:31.940Z,6.10
2018-03-28T04:44:00.226Z,6.10
2018-03-28T04:46:28.393Z,6.20
2018-03-28T04:48:56.566Z,6.10
2018-03-28T04:51:25.567Z,6.10
2018-03-28T04:53:53.732Z,6.10
2018-03-28T04:56:21.999Z,6.10
2018-03-28T04:58:50.189Z,6.00
2018-03-28T05:01:18.354Z,6.00
2018-03-28T05:03:46.639Z,6.00
2018-03-28T05:06:14.886Z,6.00
2018-03-28T05:08:42.979Z,6.00
2018-03-28T05:11:11.149Z,6.00
2018-03-28T05:13:39.325Z,6.00
2018-03-28T05:16:07.500Z,6.00
2018-03-28T05:18:35.784Z,6.00
2018-03-28T05:21:03.945Z,6.00
2018-03-28T05:23:32.120Z,6.10
2018-03-28T05:26:00.291Z,6.10
2018-03-28T05:28:28.580Z,6.10
2018-03-28T05:30:56.865Z,6.20
2018-03-28T05:33:25.842Z,6.20
2018-03-28T05:35:54.063Z,6.20
2018-03-28T05:38:22.809Z,6.20
2018-03-28T05:40:50.971Z,6.20
2018-03-28T05:43:19.149Z,6.20
2018-03-28T05:45:48.060Z,6.30
2018-03-28T05:48:17.141Z,6.30
2018-03-28T05:50:45.416Z,6.30
2018-03-28T05:53:13.580Z,6.40
2018-03-28T05:55:41.755Z,6.40
2018-03-28T05:58:09.823Z,6.50
2018-03-28T06:00:38.009Z,6.50
2018-03-28T06:03:06.786Z,6.60
2018-03-28T06:05:35.585Z,6.70
2018-03-28T06:08:05.283Z,6.80
2018-03-28T06:10:33.357Z,6.80
2018-03-28T06:13:01.593Z,6.90
2018-03-28T06:15:29.705Z,7.00
2018-03-28T06:17:57.874Z,7.10
2018-03-28T06:20:26.560Z,7.10
2018-03-28T06:22:54.848Z,7.10
2018-03-28T06:25:23.013Z,7.20
2018-03-28T06:27:51.182Z,7.20
2018-03-28T06:30:19.472Z,7.30
2018-03-28T06:32:48.349Z,7.40
2018-03-28T06:35:16.637Z,7.40
2018-03-28T06:37:44.805Z,7.50
2018-03-28T06:40:13.086Z,7.60
2018-03-28T06:42:41.248Z,7.70
2018-03-28T06:45:09.536Z,7.80
2018-03-28T06:47:37.699Z,7.80
2018-03-28T06:50:05.984Z,7.90
2018-03-28T06:52:34.151Z,7.90
2018-03-28T06:55:02.325Z,7.90
2018-03-28T06:57:30.611Z,7.90
2018-03-28T06:59:59.497Z,7.90
2018-03-28T07:02:27.663Z,7.90
2018-03-28T07:04:56.550Z,7.90
2018-03-28T07:07:24.838Z,8.00
2018-03-28T07:09:53.004Z,8.00
2018-03-28T07:12:21.793Z,8.10
2018-03-28T07:14:50.581Z,8.20
2018-03-28T07:17:18.753Z,8.30
2018-03-28T07:19:47.745Z,8.40
2018-03-28T07:22:15.917Z,8.50
2018-03-28T07:24:44.095Z,8.60
2018-03-28T07:27:13.095Z,8.70
2018-03-28T07:29:41.984Z,8.80
2018-03-28T07:32:10.144Z,8.90
2018-03-28T07:34:38.431Z,9.00
2018-03-28T07:37:06.595Z,9.10
2018-03-28T07:39:34.773Z,9.30
2018-03-28T07:42:02.941Z,9.30
2018-03-28T07:44:31.129Z,9.50
2018-03-28T07:46:59.264Z,9.60
2018-03-28T07:49:27.462Z,9.70
2018-03-28T07:51:55.636Z,9.80
2018-03-28T07:54:23.814Z,9.90
2018-03-28T07:56:52.609Z,10.00
2018-03-28T07:59:20.888Z,10.20
2018-03-28T08:01:49.262Z,10.30
2018-03-28T08:04:17.424Z,10.40
2018-03-28T08:06:45.606Z,10.60
2018-03-28T08:09:14.603Z,10.80
2018-03-28T08:11:43.597Z,10.90
2018-03-28T08:14:22.407Z,11.10
2018-03-28T08:16:50.701Z,11.10
2018-03-28T08:19:19.688Z,11.40
2018-03-28T08:21:47.850Z,11.40
2018-03-28T08:24:16.023Z,11.50
2018-03-28T08:26:44.200Z,11.60
2018-03-28T08:29:12.370Z,11.80
2018-03-28T08:31:40.658Z,11.90
2018-03-28T08:34:08.819Z,12.10
2018-03-28T08:36:37.107Z,12.20
2018-03-28T08:39:05.376Z,12.30
2018-03-28T08:41:33.550Z,12.50
2018-03-28T08:44:01.622Z,12.60
2018-03-28T08:46:29.801Z,12.80
2018-03-28T08:48:58.682Z,13.10
2018-03-28T08:51:26.853Z,13.00
2018-03-28T08:53:55.032Z,13.20
2018-03-28T08:56:23.869Z,13.30
2018-03-28T08:58:52.093Z,13.40
2018-03-28T09:01:20.377Z,13.50
2018-03-28T09:03:48.543Z,13.60
2018-03-28T09:06:16.725Z,13.70
2018-03-28T09:08:45.001Z,13.90
2018-03-28T09:11:13.162Z,14.00
2018-03-28T09:13:48.604Z,14.10
2018-03-28T09:16:29.748Z,14.30
2018-03-28T09:19:12.304Z,14.50
2018-03-28T09:21:41.095Z,14.60
2018-03-28T09:24:10.150Z,15.00
2018-03-28T09:26:38.870Z,15.00
2018-03-28T09:29:07.037Z,15.20
2018-03-28T09:31:52.771Z,15.40
2018-03-28T09:34:21.009Z,15.60
2018-03-28T09:36:49.989Z,15.90
2018-03-28T09:39:19.596Z,16.10
2018-03-28T09:41:47.593Z,16.10
2018-03-28T09:44:29.300Z,16.50
2018-03-28T09:47:17.030Z,16.50
2018-03-28T09:52:56.489Z,17.00
2018-03-28T09:55:24.490Z,17.20
2018-03-28T09:57:52.479Z,17.50
2018-03-28T10:00:25.985Z,17.60
2018-03-28T10:02:59.634Z,17.80
2018-03-28T10:05:33.059Z,18.10
2018-03-28T10:08:01.087Z,18.30
2018-03-28T10:10:29.790Z,18.90
2018-03-28T10:12:57.736Z,18.90
2018-03-28T10:15:26.495Z,19.50
2018-03-28T10:17:54.495Z,19.40
2018-03-28T10:20:22.538Z,19.70
2018-03-28T10:22:50.508Z,20.00
2018-03-28T10:25:18.532Z,20.30
2018-03-28T10:27:46.503Z,20.70
2018-03-28T10:30:14.453Z,20.90
2018-03-28T10:32:42.453Z,21.20
2018-03-28T10:35:10.454Z,21.40
2018-03-28T10:37:38.448Z,21.60
2018-03-28T10:40:07.259Z,22.10
2018-03-28T10:42:35.223Z,22.10
2018-03-28T10:45:03.259Z,22.30
2018-03-28T10:47:32.046Z,22.70
2018-03-28T10:49:59.989Z,22.70
2018-03-28T10:52:27.982Z,22.90
2018-03-28T10:54:56.052Z,23.20
2018-03-28T10:57:24.086Z,23.40
2018-03-28T10:59:52.105Z,23.60
2018-03-28T11:02:20.819Z,24.10
2018-03-28T11:04:48.771Z,24.00
2018-03-28T11:07:16.730Z,24.20
2018-03-28T11:09:45.492Z,24.40
2018-03-28T11:12:13.453Z,24.30
2018-03-28T11:14:41.401Z,24.50
2018-03-28T11:17:09.338Z,24.70
2018-03-28T11:19:37.358Z,24.90
2018-03-28T11:22:05.314Z,25.10
2018-03-28T11:24:33.298Z,25.40
2018-03-28T11:27:01.273Z,25.60
2018-03-28T11:29:29.286Z,25.70
2018-03-28T11:31:57.256Z,25.70
2018-03-28T11:34:25.218Z,25.80
2018-03-28T11:36:53.214Z,25.90
2018-03-28T11:39:21.263Z,26.10
2018-03-28T11:41:49.186Z,26.20
2018-03-28T11:44:17.187Z,26.40
2018-03-28T11:46:45.990Z,26.80
2018-03-28T11:49:13.937Z,26.80
2018-03-28T11:51:42.631Z,27.30
2018-03-28T11:54:11.386Z,27.50
2018-03-28T11:56:39.402Z,27.50
2018-03-28T11:59:07.386Z,27.60
2018-03-28T12:01:35.354Z,27.70
2018-03-28T12:04:03.342Z,27.80
2018-03-28T12:06:31.289Z,27.90
2018-03-28T12:08:59.229Z,28.10
2018-03-28T12:11:27.950Z,28.30
2018-03-28T12:13:55.939Z,28.30
2018-03-28T12:16:23.949Z,28.40
2018-03-28T12:18:52.624Z,28.60
2018-03-28T12:21:20.780Z,28.60
2018-03-28T12:23:48.845Z,28.50
2018-03-28T12:26:16.799Z,28.30
2018-03-28T12:28:44.810Z,28.20
2018-03-28T12:31:13.489Z,28.50
2018-03-28T12:33:41.479Z,28.40
2018-03-28T12:36:10.173Z,28.80
2018-03-28T12:38:38.112Z,28.80
2018-03-28T12:41:06.051Z,29.00
2018-03-28T12:43:34.024Z,28.90
2018-03-28T12:46:02.017Z,28.80
2018-03-28T12:51:27.894Z,28.20
2018-03-28T12:54:10.654Z,28.20
2018-03-28T12:56:39.436Z,27.60
2018-03-28T12:59:07.457Z,27.50
2018-03-28T13:01:35.442Z,27.30
2018-03-28T13:04:03.465Z,27.10
2018-03-28T13:06:31.408Z,27.00
2018-03-28T13:08:59.483Z,27.00
2018-03-28T13:11:27.434Z,26.80
2018-03-28T13:13:55.439Z,26.80
2018-03-28T13:16:23.381Z,26.80
2018-03-28T13:18:51.545Z,26.60
2018-03-28T13:21:19.577Z,26.30
2018-03-28T13:23:48.282Z,25.80
2018-03-28T13:26:16.218Z,25.80
2018-03-28T13:28:44.190Z,25.80
2018-03-28T13:31:12.977Z,25.50
2018-03-28T13:33:41.708Z,25.30
2018-03-28T13:36:09.694Z,25.20
2018-03-28T13:38:37.629Z,25.00
2018-03-28T13:41:05.656Z,24.70
2018-03-28T13:43:33.619Z,24.50
2018-03-28T13:46:01.617Z,24.20
2018-03-28T13:48:30.296Z,23.70
2018-03-28T13:50:58.986Z,23.70
2018-03-28T13:53:27.759Z,23.70
2018-03-28T13:55:55.710Z,23.60
2018-03-28T13:58:23.634Z,23.70
2018-03-28T14:00:51.679Z,23.80
2018-03-28T14:03:20.386Z,23.90
2018-03-28T14:05:48.442Z,23.80
2018-03-28T14:08:17.176Z,23.70
2018-03-28T14:10:45.193Z,23.70
2018-03-28T14:13:13.954Z,23.60
2018-03-28T14:15:41.885Z,23.60
2018-03-28T14:18:09.947Z,23.50
2018-03-28T14:20:37.950Z,23.20
2018-03-28T14:23:05.871Z,23.10
2018-03-28T14:25:33.810Z,22.90
2018-03-28T14:28:01.881Z,22.90
2018-03-28T14:30:29.859Z,22.90
2018-03-28T14:32:57.842Z,22.90
2018-03-28T14:35:26.599Z,22.70
2018-03-28T14:37:55.357Z,22.60
2018-03-28T14:40:23.274Z,22.60
2018-03-28T14:42:54.587Z,22.60
2018-03-28T14:45:20.031Z,22.60
2018-03-28T14:47:48.731Z,22.30
2018-03-28T14:50:16.707Z,22.30
2018-03-28T14:52:44.683Z,22.20
2018-03-28T14:55:12.691Z,22.00
2018-03-28T14:57:40.643Z,21.90
2018-03-28T15:00:08.670Z,21.90
2018-03-28T15:02:37.471Z,21.70
2018-03-28T15:05:05.553Z,21.70
2018-03-28T15:07:33.506Z,21.60
2018-03-28T15:10:01.455Z,21.50
2018-03-28T15:12:30.221Z,21.20
2018-03-28T15:14:58.232Z,21.20
2018-03-28T15:17:26.243Z,21.10
2018-03-28T15:19:54.256Z,20.90
2018-03-28T15:22:22.981Z,20.60
2018-03-28T15:24:51.010Z,20.60
2018-03-28T15:27:19.821Z,20.30
2018-03-28T15:29:47.759Z,20.30
2018-03-28T15:32:15.747Z,20.10
2018-03-28T15:34:44.480Z,19.80
2018-03-28T15:37:16.980Z,19.70
2018-03-28T15:39:44.928Z,19.70
2018-03-28T15:42:12.955Z,19.60
2018-03-28T15:44:40.951Z,19.50
2018-03-28T15:47:08.887Z,19.40
2018-03-28T15:49:37.728Z,19.20
2018-03-28T15:52:05.774Z,19.10
2018-03-28T15:54:33.905Z,19.00
2018-03-28T15:57:02.616Z,18.80
2018-03-28T15:59:30.570Z,18.80
2018-03-28T16:01:58.645Z,18.70
2018-03-28T16:04:27.531Z,18.60
2018-03-28T16:06:56.347Z,18.50
2018-03-28T16:09:24.498Z,18.50
2018-03-28T16:11:52.790Z,18.40
2018-03-28T16:14:20.896Z,18.30
2018-03-28T16:16:49.152Z,18.20
2018-03-28T16:19:17.485Z,18.00
2018-03-28T16:21:46.408Z,17.80
2018-03-28T16:24:14.622Z,17.80
2018-03-28T16:26:43.266Z,17.70
2018-03-28T16:29:11.460Z,17.60
2018-03-28T16:31:39.706Z,17.50
2018-03-28T16:34:08.009Z,17.50
2018-03-28T16:36:36.233Z,17.40
2018-03-28T16:39:05.398Z,17.30
2018-03-28T16:41:33.666Z,17.30
2018-03-28T16:44:01.939Z,17.30
2018-03-28T16:46:30.267Z,17.20
2018-03-28T16:48:59.398Z,17.10
2018-03-28T16:51:27.654Z,17.10
2018-03-28T16:53:55.984Z,17.10
2018-03-28T16:56:24.289Z,17.10
2018-03-28T16:58:53.432Z,17.00
2018-03-28T17:01:21.838Z,17.00
2018-03-28T17:03:50.128Z,17.00
2018-03-28T17:06:18.424Z,16.90
2018-03-28T17:08:47.507Z,16.80
2018-03-28T17:11:15.821Z,16.80
2018-03-28T17:13:44.061Z,16.80
2018-03-28T17:16:13.175Z,16.80
2018-03-28T17:18:41.427Z,16.80
2018-03-28T17:21:10.517Z,16.80
2018-03-28T17:23:38.807Z,16.70
2018-03-28T17:26:07.904Z,16.70
2018-03-28T17:28:36.924Z,16.60
2018-03-28T17:31:05.247Z,16.60
2018-03-28T17:33:33.505Z,16.60
2018-03-28T17:36:01.797Z,16.50
2018-03-28T17:38:30.165Z,16.50
2018-03-28T17:40:58.433Z,16.40
2018-03-28T17:43:26.673Z,16.40
2018-03-28T17:45:54.913Z,16.40
2018-03-28T17:48:23.205Z,16.40
2018-03-28T17:50:52.240Z,16.40
2018-03-28T17:53:20.521Z,16.40
2018-03-28T17:55:48.875Z,16.40
2018-03-28T17:58:17.208Z,16.30
2018-03-28T18:00:45.529Z,16.30
2018-03-28T18:03:13.876Z,16.30
2018-03-28T18:05:42.881Z,16.30
2018-03-28T18:08:11.881Z,16.30
2018-03-28T18:10:40.219Z,16.20
2018-03-28T18:13:10.530Z,16.20
2018-03-28T18:15:38.822Z,16.20
2018-03-28T18:18:07.159Z,16.10
2018-03-28T18:20:35.484Z,16.10
2018-03-28T18:23:03.821Z,16.00
2018-03-28T18:25:32.049Z,16.00
2018-03-28T18:28:01.070Z,16.00
2018-03-28T18:30:29.426Z,16.00
2018-03-28T18:32:58.492Z,15.90
2018-03-28T18:35:26.852Z,15.90
2018-03-28T18:37:55.224Z,15.80
2018-03-28T18:40:23.560Z,15.80
2018-03-28T18:42:52.608Z,15.70
2018-03-28T18:45:20.939Z,15.70
2018-03-28T18:47:49.268Z,15.70
2018-03-28T18:50:17.610Z,15.60
2018-03-28T18:52:45.913Z,15.60
2018-03-28T18:55:14.653Z,15.50
2018-03-28T18:57:44.478Z,15.40
2018-03-28T19:00:13.372Z,15.40
2018-03-28T19:02:44.195Z,15.30
2018-03-28T19:05:14.838Z,15.30
2018-03-28T19:07:44.430Z,15.20
2018-03-28T19:10:13.324Z,15.30
2018-03-28T19:12:41.906Z,15.20
2018-03-28T19:15:10.809Z,15.10
2018-03-28T19:17:40.303Z,15.00
2018-03-28T19:20:10.832Z,15.00
2018-03-28T19:22:39.732Z,14.90
2018-03-28T19:25:09.340Z,14.90
2018-03-28T19:27:39.134Z,14.80
2018-03-28T19:30:08.025Z,14.80
2018-03-28T19:32:37.625Z,14.70
2018-03-28T19:35:06.531Z,14.70
2018-03-28T19:37:35.314Z,14.70
2018-03-28T19:40:05.132Z,14.60
2018-03-28T19:42:34.127Z,14.60
2018-03-28T19:45:03.019Z,14.60
2018-03-28T19:47:33.731Z,14.50
2018-03-28T19:50:02.636Z,14.50
2018-03-28T19:52:31.951Z,14.50
2018-03-28T19:55:01.333Z,14.40
2018-03-28T19:57:30.226Z,14.40
2018-03-28T19:59:59.938Z,14.40
2018-03-28T20:02:28.727Z,14.30
2018-03-28T20:04:57.513Z,14.30
2018-03-28T20:07:27.847Z,14.30
2018-03-28T20:09:57.447Z,14.20
2018-03-28T20:12:27.107Z,14.20
2018-03-28T20:14:56.555Z,14.20
2018-03-28T20:17:26.159Z,14.20
2018-03-28T20:19:55.669Z,14.10
2018-03-28T20:22:25.473Z,14.00
2018-03-28T20:24:54.361Z,14.00
2018-03-28T20:27:22.954Z,13.90
2018-03-28T20:29:52.664Z,13.80
2018-03-28T20:32:21.444Z,13.80
2018-03-28T20:34:51.781Z,13.70
2018-03-28T20:37:21.994Z,13.60
2018-03-28T20:39:50.875Z,13.60
2018-03-28T20:42:20.601Z,13.50
2018-03-28T20:44:49.389Z,13.50
2018-03-28T20:47:19.000Z,13.40
2018-03-28T20:49:47.811Z,13.40
2018-03-28T20:52:17.378Z,13.40
2018-03-28T20:54:46.065Z,13.30
2018-03-28T20:57:14.749Z,13.30
2018-03-28T20:59:45.173Z,13.30
2018-03-28T21:02:14.211Z,13.20
2018-03-28T21:04:42.283Z,13.20
2018-03-28T21:07:10.265Z,13.20
2018-03-28T21:09:38.271Z,13.20
2018-03-28T21:12:07.001Z,13.10
2018-03-28T21:14:35.011Z,13.10
2018-03-28T21:17:03.038Z,13.00
2018-03-28T21:19:31.056Z,13.00
2018-03-28T21:21:59.790Z,12.90
2018-03-28T21:24:27.804Z,12.90
2018-03-28T21:26:55.763Z,12.80
2018-03-28T21:29:23.724Z,12.80
2018-03-28T21:31:51.698Z,12.70
2018-03-28T21:34:19.690Z,12.70
2018-03-28T21:36:48.403Z,12.60
2018-03-28T21:39:16.402Z,12.50
2018-03-28T21:41:46.152Z,12.50
2018-03-28T21:44:15.873Z,12.40
2018-03-28T21:46:44.371Z,12.30
2018-03-28T21:49:12.340Z,12.20
2018-03-28T21:51:41.809Z,12.20
2018-03-28T21:54:11.629Z,12.10
2018-03-28T21:56:39.752Z,12.00
2018-03-28T21:59:07.720Z,12.00
2018-03-28T22:01:35.682Z,12.00
2018-03-28T22:04:03.707Z,11.90
2018-03-28T22:06:32.506Z,11.90
2018-03-28T22:09:01.344Z,11.90
2018-03-28T22:11:29.304Z,11.90
2018-03-28T22:13:57.289Z,11.90
2018-03-28T22:16:25.987Z,12.00
2018-03-28T22:18:55.040Z,12.00
2018-03-28T22:21:22.994Z,12.00
2018-03-28T22:23:51.101Z,12.00
2018-03-28T22:26:19.119Z,12.00
2018-03-28T22:28:47.945Z,12.10
2018-03-28T22:31:15.910Z,12.10
2018-03-28T22:33:43.885Z,12.10
2018-03-28T22:36:11.888Z,12.10
2018-03-28T22:38:39.946Z,12.10
2018-03-28T22:41:07.918Z,12.20
2018-03-28T22:43:35.830Z,12.10
2018-03-28T22:46:04.573Z,12.10
2018-03-28T22:48:32.496Z,12.10
2018-03-28T22:51:00.466Z,12.10
2018-03-28T22:53:28.422Z,12.20
2018-03-28T22:55:57.118Z,12.20
2018-03-28T22:58:25.195Z,12.20
2018-03-28T23:00:53.173Z,12.20
2018-03-28T23:03:21.198Z,12.30
2018-03-28T23:05:49.203Z,12.30
2018-03-28T23:08:17.232Z,12.20
2018-03-28T23:10:45.235Z,12.20
2018-03-28T23:13:13.174Z,12.20
2018-03-28T23:15:41.459Z,12.30
2018-03-28T23:18:10.246Z,12.30
2018-03-28T23:20:38.946Z,12.30
2018-03-28T23:23:07.701Z,12.30
2018-03-28T23:25:35.642Z,12.30
2018-03-28T23:28:03.712Z,12.40
2018-03-28T23:30:31.731Z,12.40
2018-03-28T23:33:00.441Z,12.50
2018-03-28T23:35:28.397Z,12.50
2018-03-28T23:37:57.114Z,12.60
2018-03-28T23:40:25.034Z,12.60
2018-03-28T23:42:53.794Z,12.70
2018-03-28T23:45:21.756Z,12.70
2018-03-28T23:47:49.691Z,12.70
2018-03-28T23:50:17.658Z,12.80
2018-03-28T23:52:45.590Z,12.80
2018-03-28T23:55:13.505Z,12.80
2018-03-28T23:57:41.416Z,12.90
